Nearby METAR Reports

 

EGNM - Leeds And Bradford, United Kingdom
Distance from station: N 11mi, 18km
Updated: 10/12/2018 16:50
Partly cloudy
Partly cloudy
 Wind from ENE
Wind: ENE 1 mph , 2 km/h
Temperature: 4°C
Dew Point: 2°C
Humidity: 87%
Barometer: 1026 hPa
Clouds: Partly cloudy
Visibility: 6 miles , 10 km
Cloud details: Partly cloudy 732 m
2018/12/10 16:50 EGNM 101650Z 07001KT 9999 SCT024 04/02 Q1026
EGXG - Church Fenton, United Kingdom
Distance from station: ENE 19mi, 31km
Updated: 19/12/2013 08:50
NOT Current
Clear
Clear
 Wind from SW
Wind: SW 16 mph , 26 km/h
Temperature: 4°C
Wind Chill: -1°C
Dew Point: -1°C
Humidity: 70%
Barometer: 996 hPa
Clouds: Clear
Visibility: 6 miles , 10 km
2013/12/19 08:50 EGXG 190850Z AUTO 23014KT 9999 NCD 04/M01 Q0996
 
EGXU - Linton-On-Ouse, United Kingdom
Distance from station: NNE 28mi, 45km
Updated: 10/12/2018 16:50
Clear
Clear
 Wind from calm
Wind: Calm
Temperature: 2°C
Dew Point: 1°C
Humidity: 93%
Barometer: 1027 hPa
Summary: Clear
Visibility: greater than 7 miles , 10 km
2018/12/10 16:50 EGXU 101650Z 00000KT CAVOK 02/01 Q1027 BLU BECMG 7000 BR WHT
EGCN - Doncaster Sheffield, United Kingdom
Distance from station: ESE 30mi, 45km
Updated: 10/12/2018 16:50
Clear
Clear
 Wind from S
Wind: S 2 mph , 4 km/h
Temperature: 3°C
Dew Point: 1°C
Humidity: 87%
Barometer: 1028 hPa
Summary: Clear
Visibility: greater than 7 miles , 10 km
2018/12/10 16:50 EGCN 101650Z 19002KT CAVOK 03/01 Q1028
 
EGXD - Dishforth RAF, United Kingdom
Distance from station: NNE 31mi, 49km
Updated: 06/06/2016 10:50
NOT Current
Clear
Clear
 Wind from SSE
Wind: SSE 5 mph , 7 km/h
Temperature: 18°C
Dew Point: 11°C
Humidity: 64%
Barometer: 1023 hPa
Clouds: Clear
Visibility: 6 miles , 10 km
2016/06/06 09:50 EGXD 060950Z AUTO 16004KT 9999 // NCD 18/11 Q1023
EGXZ - Topcliffe RAF, United Kingdom
Distance from station: NNE 36mi, 57km
Updated: 10/12/2018 16:50
Clear
Clear
 Wind from S
Wind: S 2 mph , 4 km/h
Temperature: 0°C
Dew Point: -1°C
Humidity: 93%
Barometer: 1027 hPa
Summary: Clear
Visibility: greater than 7 miles , 10 km
2018/12/10 16:50 EGXZ 101650Z 19002KT CAVOK 00/M01 Q1027 BLU
 
EGCC - Manchester Intl, United Kingdom
Distance from station: SW 36mi, 58km
Updated: 10/12/2018 16:50
Partly cloudy
Partly cloudy
 Wind from varies
Wind: varies 3 mph , 6 km/h
Temperature: 7°C
Dew Point: 5°C
Humidity: 87%
Barometer: 1027 hPa
Clouds: Partly cloudy
Visibility: 6 miles , 10 km
Cloud details: Partly cloudy 457 m
2018/12/10 16:50 EGCC 101650Z AUTO VRB03KT 9999 SCT015 07/05 Q1027 NOSIG
EGXE - Leeming RAF, United Kingdom
Distance from station: N 40mi, 65km
Updated: 10/12/2018 16:50
Mostly cloudy
Mostly cloudy
 Wind from SW
Wind: SW 2 mph , 4 km/h
Temperature: 2°C
Dew Point: 1°C
Humidity: 93%
Barometer: 1026 hPa
Clouds: Mostly cloudy
Visibility: 6 miles , 10 km
Cloud details: Few Clouds 1067 m
Mostly cloudy 3353 m
2018/12/10 16:50 EGXE 101650Z 22002KT 9999 FEW035 BKN110 02/01 Q1026 BLU NOSIG